Terminal Aerodrome Forecast
Issued by NWS

Home | Current Version | Previous Version | Text Only | Print | Product List | Glossary On
Versions: 1 2 3 4 5 6 7 8 9 10 11 12 13 14 15 16
220
FTUS43 KICT 270520
TAFSLN
TAF
KSLN 270520Z 2706/2806 08015G23KT P6SM -TSRA OVC090CB
     FM270700 12011KT P6SM BKN150
     FM271000 15008KT 6SM BR OVC008
     FM271600 16016KT P6SM SCT035
     FM272200 16015G23KT P6SM VCTS BKN035CB=

USA.gov is the U.S. government's official web portal to all federal, state and local government web resources and services.